createdAt,value
2017-11-23T00:00:55.755Z,7.30
2017-11-23T00:01:55.747Z,6.30
2017-11-23T00:02:55.740Z,7.30
2017-11-23T00:03:55.734Z,7.30
2017-11-23T00:04:55.729Z,6.70
2017-11-23T00:05:55.721Z,7.20
2017-11-23T00:06:55.712Z,7.20
2017-11-23T00:07:55.710Z,7.20
2017-11-23T00:08:55.701Z,7.30
2017-11-23T00:09:55.692Z,7.00
2017-11-23T00:10:55.683Z,7.40
2017-11-23T00:11:55.677Z,6.90
2017-11-23T00:12:55.674Z,7.30
2017-11-23T00:13:55.664Z,7.30
2017-11-23T00:14:55.657Z,7.00
2017-11-23T00:15:55.653Z,8.10
2017-11-23T00:16:55.644Z,6.90
2017-11-23T00:17:55.639Z,8.30
2017-11-23T00:18:55.631Z,7.90
2017-11-23T00:19:55.628Z,7.30
2017-11-23T00:20:55.619Z,7.80
2017-11-23T00:21:55.609Z,7.20
2017-11-23T00:22:55.602Z,7.60
2017-11-23T00:23:55.599Z,7.40
2017-11-23T00:24:55.587Z,7.10
2017-11-23T00:25:55.580Z,7.50
2017-11-23T00:26:55.574Z,7.50
2017-11-23T00:27:55.569Z,7.50
2017-11-23T00:28:55.563Z,7.10
2017-11-23T00:29:55.555Z,7.40
2017-11-23T00:30:55.547Z,7.40
2017-11-23T00:31:55.543Z,6.90
2017-11-23T00:32:55.532Z,7.60
2017-11-23T00:33:55.525Z,7.70
2017-11-23T00:34:55.517Z,7.40
2017-11-23T00:35:55.510Z,7.40
2017-11-23T00:36:55.507Z,7.60
2017-11-23T00:37:55.498Z,7.70
2017-11-23T00:38:55.494Z,7.70
2017-11-23T00:39:55.489Z,7.20
2017-11-23T00:40:55.477Z,8.40
2017-11-23T00:41:55.469Z,8.10
2017-11-23T00:42:55.464Z,8.40
2017-11-23T00:43:55.456Z,8.00
2017-11-23T00:44:55.448Z,7.30
2017-11-23T00:45:55.445Z,8.10
2017-11-23T00:46:55.435Z,7.70
2017-11-23T00:47:55.429Z,8.40
2017-11-23T00:48:55.421Z,7.70
2017-11-23T00:49:55.414Z,8.00
2017-11-23T00:50:55.406Z,7.70
2017-11-23T00:51:55.404Z,7.60
2017-11-23T00:52:55.390Z,7.80
2017-11-23T00:53:55.389Z,8.30
2017-11-23T00:54:55.379Z,7.70
2017-11-23T00:55:55.374Z,8.30
2017-11-23T00:56:55.364Z,7.80
2017-11-23T00:57:55.356Z,8.20
2017-11-23T00:58:55.350Z,8.10
2017-11-23T00:59:55.343Z,8.20
2017-11-23T01:00:55.336Z,8.40
2017-11-23T01:01:55.328Z,7.90
2017-11-23T01:02:55.323Z,8.20
2017-11-23T01:03:55.315Z,7.50
2017-11-23T01:04:55.308Z,7.90
2017-11-23T01:05:55.300Z,7.80
2017-11-23T01:06:55.295Z,8.00
2017-11-23T01:07:55.287Z,8.00
2017-11-23T01:08:55.281Z,7.60
2017-11-23T01:09:55.273Z,7.90
2017-11-23T01:10:55.262Z,7.80
2017-11-23T01:11:55.268Z,8.30
2017-11-23T01:12:55.255Z,7.70
2017-11-23T01:13:55.251Z,9.70
2017-11-23T01:14:55.236Z,7.90
2017-11-23T01:15:55.228Z,8.40
2017-11-23T01:16:55.223Z,8.30
2017-11-23T01:17:55.214Z,8.30
2017-11-23T01:18:55.210Z,8.00
2017-11-23T01:19:55.202Z,8.10
2017-11-23T01:20:55.193Z,8.10
2017-11-23T01:21:55.187Z,7.50
2017-11-23T01:22:55.178Z,7.80
2017-11-23T01:23:55.173Z,8.20
2017-11-23T01:24:55.168Z,7.70
2017-11-23T01:25:55.157Z,7.90
2017-11-23T01:26:55.161Z,7.80
2017-11-23T01:27:55.144Z,8.00
2017-11-23T01:28:55.140Z,8.30
2017-11-23T01:29:55.127Z,8.40
2017-11-23T01:30:55.118Z,8.30
2017-11-23T01:31:55.112Z,8.50
2017-11-23T01:32:55.108Z,8.30
2017-11-23T01:33:55.100Z,8.00
2017-11-23T01:34:55.095Z,7.80
2017-11-23T01:35:55.083Z,8.30
2017-11-23T01:36:55.081Z,7.80
2017-11-23T01:37:55.070Z,7.90
2017-11-23T01:38:55.064Z,8.20
2017-11-23T01:39:55.056Z,8.10
2017-11-23T01:40:55.049Z,8.00
2017-11-23T01:41:55.039Z,8.20
2017-11-23T01:42:55.040Z,8.00
2017-11-23T01:43:55.045Z,8.50
2017-11-23T01:44:55.024Z,8.50
2017-11-23T01:45:55.011Z,7.90
2017-11-23T01:46:55.009Z,7.80
2017-11-23T01:47:54.997Z,8.10
2017-11-23T01:48:54.991Z,8.60
2017-11-23T01:49:54.981Z,7.90
2017-11-23T01:50:54.976Z,8.50
2017-11-23T01:51:54.970Z,8.10
2017-11-23T01:52:54.962Z,7.90
2017-11-23T01:53:54.953Z,7.40
2017-11-23T01:54:54.946Z,8.00
2017-11-23T01:55:54.940Z,8.00
2017-11-23T01:56:54.933Z,7.50
2017-11-23T01:57:54.922Z,7.70
2017-11-23T01:58:54.915Z,8.20
2017-11-23T01:59:54.909Z,8.60
2017-11-23T02:00:54.904Z,7.60
2017-11-23T02:01:54.890Z,7.80
2017-11-23T02:02:54.889Z,7.50
2017-11-23T02:03:54.878Z,7.50
2017-11-23T02:04:54.871Z,7.40
2017-11-23T02:05:54.865Z,8.40
2017-11-23T02:06:54.857Z,7.70
2017-11-23T02:07:54.852Z,8.00
2017-11-23T02:08:54.845Z,7.80
2017-11-23T02:09:54.834Z,7.40
2017-11-23T02:10:54.826Z,7.40
2017-11-23T02:11:54.819Z,7.40
2017-11-23T02:12:54.814Z,8.20
2017-11-23T02:13:54.803Z,7.80
2017-11-23T02:14:54.799Z,7.50
2017-11-23T02:15:54.791Z,7.80
2017-11-23T02:16:54.785Z,7.70
2017-11-23T02:17:54.775Z,7.90
2017-11-23T02:18:54.767Z,8.60
2017-11-23T02:19:54.758Z,7.90
2017-11-23T02:20:54.753Z,7.90
2017-11-23T02:21:54.745Z,8.50
2017-11-23T02:22:54.742Z,8.00
2017-11-23T02:23:54.732Z,8.60
2017-11-23T02:24:54.722Z,8.50
2017-11-23T02:25:54.715Z,7.60
2017-11-23T02:26:54.708Z,7.60
2017-11-23T02:27:54.701Z,7.50
2017-11-23T02:28:54.693Z,7.90
2017-11-23T02:29:54.686Z,7.70
2017-11-23T02:30:54.680Z,8.10
2017-11-23T02:31:54.672Z,7.40
2017-11-23T02:32:54.662Z,7.70
2017-11-23T02:33:54.653Z,8.10
2017-11-23T02:34:54.647Z,8.10
2017-11-23T02:35:54.640Z,7.60
2017-11-23T02:36:54.631Z,7.80
2017-11-23T02:37:54.625Z,8.20
2017-11-23T02:38:54.610Z,7.90
2017-11-23T02:39:54.599Z,7.30
2017-11-23T02:40:54.605Z,7.80
2017-11-23T02:41:54.594Z,7.50
2017-11-23T02:42:54.585Z,7.20
2017-11-23T02:43:54.580Z,7.80
2017-11-23T02:44:54.572Z,9.10
2017-11-23T02:45:54.565Z,8.00
2017-11-23T02:46:54.555Z,8.30
2017-11-23T02:47:54.548Z,7.30
2017-11-23T02:48:54.544Z,7.80
2017-11-23T02:49:54.532Z,8.10
2017-11-23T02:50:54.525Z,7.70
2017-11-23T02:51:54.516Z,7.60
2017-11-23T02:52:54.517Z,7.40
2017-11-23T02:53:54.503Z,7.90
2017-11-23T02:54:54.495Z,7.60
2017-11-23T02:55:54.486Z,7.60
2017-11-23T02:56:54.483Z,7.90
2017-11-23T02:57:54.483Z,8.60
2017-11-23T02:58:54.463Z,8.30
2017-11-23T02:59:54.467Z,7.40
2017-11-23T03:00:54.449Z,8.30
2017-11-23T03:01:54.440Z,8.30
2017-11-23T03:02:54.432Z,7.90
2017-11-23T03:03:54.425Z,7.80
2017-11-23T03:04:54.418Z,7.90
2017-11-23T03:05:54.407Z,7.40
2017-11-23T03:06:54.403Z,8.30
2017-11-23T03:07:54.396Z,8.00
2017-11-23T03:08:54.387Z,8.20
2017-11-23T03:09:54.380Z,7.90
2017-11-23T03:10:54.371Z,7.90
2017-11-23T03:11:54.363Z,7.60
2017-11-23T03:12:54.356Z,7.90
2017-11-23T03:13:54.348Z,8.40
2017-11-23T03:14:54.341Z,7.30
2017-11-23T03:15:54.334Z,7.30
2017-11-23T03:16:54.324Z,7.40
2017-11-23T03:17:54.319Z,7.60
2017-11-23T03:18:54.317Z,7.30
2017-11-23T03:19:54.303Z,7.60
2017-11-23T03:20:54.296Z,7.90
2017-11-23T03:21:54.288Z,7.90
2017-11-23T03:22:54.275Z,7.70
2017-11-23T03:23:54.270Z,7.80
2017-11-23T03:24:54.263Z,7.60
2017-11-23T03:25:54.254Z,8.10
2017-11-23T03:26:54.245Z,7.70
2017-11-23T03:27:54.247Z,7.40
2017-11-23T03:28:54.233Z,7.30
2017-11-23T03:29:54.227Z,7.20
2017-11-23T03:30:54.217Z,7.50
2017-11-23T03:31:54.217Z,7.70
2017-11-23T03:32:54.201Z,7.60
2017-11-23T03:33:54.193Z,7.30
2017-11-23T03:34:54.193Z,7.90
2017-11-23T03:35:54.178Z,7.60
2017-11-23T03:36:54.170Z,7.80
2017-11-23T03:37:54.164Z,8.00
2017-11-23T03:38:54.154Z,7.70
2017-11-23T03:39:54.153Z,7.50
2017-11-23T03:40:54.139Z,7.60
2017-11-23T03:41:54.131Z,7.30
2017-11-23T03:42:54.121Z,7.20
2017-11-23T03:43:54.120Z,7.60
2017-11-23T03:44:54.108Z,7.30
2017-11-23T03:45:54.099Z,7.20
2017-11-23T03:46:54.090Z,7.40
2017-11-23T03:47:54.087Z,7.80
2017-11-23T03:48:54.077Z,7.10
2017-11-23T03:49:54.071Z,8.00
2017-11-23T03:50:54.061Z,7.70
2017-11-23T03:51:54.056Z,7.40
2017-11-23T03:52:54.046Z,7.40
2017-11-23T03:53:54.037Z,7.80
2017-11-23T03:54:54.030Z,7.50
2017-11-23T03:55:54.022Z,7.90
2017-11-23T03:56:54.017Z,7.30
2017-11-23T03:57:54.006Z,7.00
2017-11-23T03:58:53.998Z,7.40
2017-11-23T03:59:53.992Z,7.40
2017-11-23T04:00:53.981Z,8.00
2017-11-23T04:01:53.973Z,7.70
2017-11-23T04:02:53.966Z,7.90
2017-11-23T04:03:53.953Z,7.70
2017-11-23T04:04:53.953Z,8.00
2017-11-23T04:05:53.941Z,6.80
2017-11-23T04:06:53.935Z,7.60
2017-11-23T04:07:53.928Z,7.20
2017-11-23T04:08:53.920Z,7.70
2017-11-23T04:09:53.912Z,7.40
2017-11-23T04:10:53.903Z,7.50
2017-11-23T04:11:53.897Z,7.70
2017-11-23T04:12:53.891Z,9.00
2017-11-23T04:13:53.882Z,7.80
2017-11-23T04:14:53.873Z,8.70
2017-11-23T04:15:53.868Z,7.70
2017-11-23T04:16:53.860Z,7.50
2017-11-23T04:17:53.852Z,6.90
2017-11-23T04:18:53.844Z,7.00
2017-11-23T04:19:53.836Z,7.10
2017-11-23T04:20:53.829Z,7.30
2017-11-23T04:21:53.820Z,7.20
2017-11-23T04:22:53.813Z,7.40
2017-11-23T04:23:53.807Z,7.30
2017-11-23T04:24:53.801Z,7.80
2017-11-23T04:25:53.790Z,7.30
2017-11-23T04:26:53.781Z,8.60
2017-11-23T04:27:53.773Z,7.70
2017-11-23T04:28:54.434Z,7.30
2017-11-23T04:29:53.759Z,8.00
2017-11-23T04:30:53.752Z,8.40
2017-11-23T04:31:53.743Z,7.30
2017-11-23T04:32:53.737Z,8.20
2017-11-23T04:33:53.728Z,8.10
2017-11-23T04:34:53.721Z,8.00
2017-11-23T04:35:53.715Z,7.90
2017-11-23T04:36:53.707Z,8.30
2017-11-23T04:37:53.701Z,7.90
2017-11-23T04:38:53.693Z,7.60
2017-11-23T04:39:53.682Z,7.60
2017-11-23T04:40:53.675Z,7.40
2017-11-23T04:41:53.666Z,7.10
2017-11-23T04:42:53.664Z,7.20
2017-11-23T04:43:53.652Z,7.10
2017-11-23T04:44:53.641Z,7.80
2017-11-23T04:45:53.638Z,7.10
2017-11-23T04:46:53.630Z,8.30
2017-11-23T04:47:53.625Z,7.40
2017-11-23T04:48:53.618Z,7.90
2017-11-23T04:49:53.605Z,7.60
2017-11-23T04:50:53.602Z,7.20
2017-11-23T04:51:53.594Z,7.70
2017-11-23T04:52:53.584Z,8.20
2017-11-23T04:53:53.578Z,8.20
2017-11-23T04:54:53.577Z,7.90
2017-11-23T04:55:53.564Z,7.90
2017-11-23T04:56:53.558Z,7.30
2017-11-23T04:57:53.549Z,7.10
2017-11-23T04:58:53.542Z,7.00
2017-11-23T04:59:53.536Z,6.80
2017-11-23T05:00:53.527Z,7.00
2017-11-23T05:01:53.515Z,7.10
2017-11-23T05:02:53.511Z,6.70
2017-11-23T05:03:53.506Z,7.80
2017-11-23T05:04:53.500Z,7.30
2017-11-23T05:05:53.491Z,7.60
2017-11-23T05:06:53.484Z,7.70
2017-11-23T05:07:53.475Z,7.40
2017-11-23T05:08:53.466Z,7.90
2017-11-23T05:09:53.458Z,7.70
2017-11-23T05:10:53.452Z,7.40
2017-11-23T05:11:53.445Z,7.60
2017-11-23T05:12:53.437Z,8.60
2017-11-23T05:13:53.429Z,8.50
2017-11-23T05:14:53.424Z,8.20
2017-11-23T05:15:53.414Z,7.90
2017-11-23T05:16:53.409Z,7.80
2017-11-23T05:17:53.400Z,8.30
2017-11-23T05:18:53.393Z,8.20
2017-11-23T05:19:53.386Z,7.90
2017-11-23T05:20:53.379Z,7.80
2017-11-23T05:21:53.364Z,7.60
2017-11-23T05:22:53.363Z,7.90
2017-11-23T05:23:53.356Z,7.30
2017-11-23T05:24:53.348Z,7.10
2017-11-23T05:25:53.341Z,9.10
2017-11-23T05:26:53.332Z,8.90
2017-11-23T05:27:53.324Z,8.60
2017-11-23T05:28:53.319Z,7.70
2017-11-23T05:29:53.309Z,8.00
2017-11-23T05:30:53.304Z,7.90
2017-11-23T05:31:53.302Z,8.20
2017-11-23T05:32:53.288Z,7.80
2017-11-23T05:33:53.280Z,7.60
2017-11-23T05:34:53.279Z,9.00
2017-11-23T05:35:53.265Z,8.40
2017-11-23T05:36:53.259Z,8.70
2017-11-23T05:37:53.250Z,8.20
2017-11-23T05:38:53.242Z,8.50
2017-11-23T05:39:53.242Z,8.40
2017-11-23T05:40:53.229Z,8.80
2017-11-23T05:41:53.222Z,8.60
2017-11-23T05:42:53.215Z,8.50
2017-11-23T05:43:53.206Z,8.20
2017-11-23T05:44:53.199Z,8.60
2017-11-23T05:45:53.193Z,8.50
2017-11-23T05:46:53.184Z,8.70
2017-11-23T05:47:53.175Z,8.50
2017-11-23T05:48:53.170Z,8.50
2017-11-23T05:49:53.162Z,8.40
2017-11-23T05:50:53.158Z,7.90
2017-11-23T05:51:53.146Z,8.40
2017-11-23T05:52:53.141Z,7.90
2017-11-23T05:53:53.133Z,8.20
2017-11-23T05:54:53.126Z,8.30
2017-11-23T05:55:53.118Z,8.00
2017-11-23T05:56:53.113Z,7.60
2017-11-23T05:57:53.103Z,7.60
2017-11-23T05:58:53.097Z,7.80
2017-11-23T05:59:53.087Z,8.10
2017-11-23T06:00:53.085Z,7.50
2017-11-23T06:01:53.073Z,7.20
2017-11-23T06:02:53.066Z,7.80
2017-11-23T06:03:53.057Z,7.60
2017-11-23T06:04:53.052Z,7.40
2017-11-23T06:05:53.044Z,7.30
2017-11-23T06:06:53.035Z,7.80
2017-11-23T06:07:53.029Z,7.30
2017-11-23T06:08:53.023Z,7.60
2017-11-23T06:09:53.013Z,7.40
2017-11-23T06:10:53.005Z,7.80
2017-11-23T06:11:52.998Z,7.90
2017-11-23T06:12:52.991Z,9.00
2017-11-23T06:13:52.984Z,8.60
2017-11-23T06:14:52.976Z,8.40
2017-11-23T06:15:52.972Z,8.10
2017-11-23T06:16:52.961Z,8.10
2017-11-23T06:17:52.954Z,8.00
2017-11-23T06:18:52.945Z,7.30
2017-11-23T06:19:52.939Z,9.30
2017-11-23T06:20:52.935Z,7.80
2017-11-23T06:21:52.921Z,8.40
2017-11-23T06:22:52.914Z,9.30
2017-11-23T06:23:52.907Z,9.50
2017-11-23T06:24:52.901Z,9.00
2017-11-23T06:25:52.890Z,9.30
2017-11-23T06:26:52.884Z,8.90
2017-11-23T06:27:52.879Z,9.00
2017-11-23T06:28:52.867Z,8.40
2017-11-23T06:29:52.862Z,8.20
2017-11-23T06:30:52.853Z,7.90
2017-11-23T06:31:52.847Z,8.20
2017-11-23T06:32:52.839Z,8.00
2017-11-23T06:33:52.836Z,8.10
2017-11-23T06:34:52.821Z,8.50
2017-11-23T06:35:52.816Z,8.20
2017-11-23T06:36:52.809Z,8.10
2017-11-23T06:37:52.799Z,7.70
2017-11-23T06:38:52.798Z,7.90
2017-11-23T06:39:52.785Z,7.30
2017-11-23T06:40:52.784Z,7.90
2017-11-23T06:41:52.767Z,9.60
2017-11-23T06:42:52.764Z,8.40
2017-11-23T06:43:52.754Z,9.30
2017-11-23T06:44:52.745Z,8.70
2017-11-23T06:45:52.739Z,9.10
2017-11-23T06:46:52.731Z,10.40
2017-11-23T06:47:52.727Z,9.20
2017-11-23T06:48:52.717Z,8.50
2017-11-23T06:49:52.708Z,8.20
2017-11-23T06:50:52.702Z,8.70
2017-11-23T06:51:52.693Z,8.00
2017-11-23T06:52:52.690Z,8.70
2017-11-23T06:53:52.679Z,8.50
2017-11-23T06:54:52.671Z,7.80
2017-11-23T06:55:52.663Z,8.90
2017-11-23T06:56:52.653Z,8.20
2017-11-23T06:57:52.650Z,7.90
2017-11-23T06:58:52.638Z,7.80
2017-11-23T06:59:52.630Z,7.80
2017-11-23T07:00:52.621Z,8.00
2017-11-23T07:01:52.617Z,7.80
2017-11-23T07:02:52.611Z,9.00
2017-11-23T07:03:52.608Z,7.90
2017-11-23T07:04:52.592Z,9.40
2017-11-23T07:05:52.590Z,8.80
2017-11-23T07:06:52.580Z,9.10
2017-11-23T07:07:52.570Z,8.80
2017-11-23T07:08:52.562Z,8.60
2017-11-23T07:09:52.555Z,8.60
2017-11-23T07:10:52.549Z,9.60
2017-11-23T07:11:52.538Z,8.30
2017-11-23T07:12:52.534Z,8.00
2017-11-23T07:13:52.522Z,8.70
2017-11-23T07:14:52.515Z,8.20
2017-11-23T07:15:52.510Z,7.90
2017-11-23T07:16:52.501Z,8.00
2017-11-23T07:17:52.491Z,7.80
2017-11-23T07:18:52.485Z,8.30
2017-11-23T07:19:52.476Z,8.60
2017-11-23T07:20:52.472Z,8.00
2017-11-23T07:21:52.462Z,9.00
2017-11-23T07:22:52.455Z,9.00
2017-11-23T07:23:52.448Z,7.70
2017-11-23T07:24:52.439Z,7.60
2017-11-23T07:25:52.430Z,7.50
2017-11-23T07:26:52.425Z,8.90
2017-11-23T07:27:52.418Z,7.90
2017-11-23T07:28:52.411Z,8.00
2017-11-23T07:29:52.410Z,8.10
2017-11-23T07:30:52.393Z,7.70
2017-11-23T07:31:52.386Z,8.10
2017-11-23T07:32:52.380Z,9.20
2017-11-23T07:33:52.372Z,9.70
2017-11-23T07:34:52.363Z,9.00
2017-11-23T07:35:52.356Z,9.20
2017-11-23T07:36:52.365Z,9.30
2017-11-23T07:37:52.349Z,9.40
2017-11-23T07:38:52.334Z,8.70
2017-11-23T07:39:52.327Z,8.50
2017-11-23T07:40:52.319Z,8.80
2017-11-23T07:41:52.307Z,7.80
2017-11-23T07:42:52.317Z,8.70
2017-11-23T07:43:52.297Z,8.60
2017-11-23T07:44:52.289Z,8.30
2017-11-23T07:45:52.316Z,9.10
2017-11-23T07:46:52.273Z,9.40
2017-11-23T07:47:52.268Z,9.00
2017-11-23T07:48:52.262Z,9.20
2017-11-23T07:49:52.248Z,9.70
2017-11-23T07:50:52.242Z,10.10
2017-11-23T07:51:52.238Z,10.70
2017-11-23T07:52:52.229Z,10.50
2017-11-23T07:53:52.221Z,10.70
2017-11-23T07:54:52.217Z,11.40
2017-11-23T07:55:52.207Z,13.50
2017-11-23T07:56:52.200Z,18.50
2017-11-23T07:57:52.189Z,18.60
2017-11-23T07:58:52.185Z,18.00
2017-11-23T07:59:52.176Z,20.10
2017-11-23T08:00:52.173Z,19.00
2017-11-23T08:01:52.161Z,17.00
2017-11-23T08:02:52.154Z,21.90
2017-11-23T08:03:52.149Z,21.30
2017-11-23T08:04:52.140Z,21.80
2017-11-23T08:05:52.137Z,19.80
2017-11-23T08:06:52.128Z,18.40
2017-11-23T08:07:52.115Z,17.00
2017-11-23T08:08:52.110Z,16.60
2017-11-23T08:09:52.103Z,15.30
2017-11-23T08:10:52.094Z,14.70
2017-11-23T08:11:52.084Z,13.30
2017-11-23T08:12:52.080Z,12.80
2017-11-23T08:13:52.074Z,12.70
2017-11-23T08:14:52.068Z,13.50
2017-11-23T08:15:52.057Z,12.40
2017-11-23T08:16:52.053Z,12.10
2017-11-23T08:17:52.042Z,11.50
2017-11-23T08:18:52.036Z,11.10
2017-11-23T08:19:52.031Z,10.10
2017-11-23T08:20:52.021Z,9.80
2017-11-23T08:21:52.014Z,8.90
2017-11-23T08:22:52.006Z,10.30
2017-11-23T08:23:52.001Z,10.60
2017-11-23T08:24:51.995Z,9.80
2017-11-23T08:25:51.989Z,9.30
2017-11-23T08:26:51.989Z,9.80
2017-11-23T08:27:51.973Z,10.00
2017-11-23T08:28:51.967Z,10.40
2017-11-23T08:29:51.960Z,9.10
2017-11-23T08:30:51.952Z,10.00
2017-11-23T08:31:51.945Z,9.80
2017-11-23T08:32:51.944Z,9.60
2017-11-23T08:33:51.933Z,10.00
2017-11-23T08:34:51.924Z,9.50
2017-11-23T08:35:51.918Z,9.20
2017-11-23T08:36:51.911Z,9.40
2017-11-23T08:37:51.903Z,9.30
2017-11-23T08:38:51.897Z,9.90
2017-11-23T08:39:51.891Z,8.90
2017-11-23T08:40:51.883Z,10.10
2017-11-23T08:41:51.880Z,9.50
2017-11-23T08:42:51.870Z,9.20
2017-11-23T08:43:51.866Z,10.30
2017-11-23T08:44:51.861Z,9.40
2017-11-23T08:45:51.850Z,8.60
2017-11-23T08:46:51.844Z,8.90
2017-11-23T08:47:51.835Z,10.10
2017-11-23T08:48:51.842Z,9.00
2017-11-23T08:49:51.823Z,9.40
2017-11-23T08:50:51.815Z,9.50
2017-11-23T08:51:51.806Z,9.50
2017-11-23T08:52:51.803Z,9.00
2017-11-23T08:53:51.796Z,9.20
2017-11-23T08:54:51.788Z,9.00
2017-11-23T08:55:51.784Z,9.70
2017-11-23T08:56:51.777Z,8.80
2017-11-23T08:57:51.769Z,9.80
2017-11-23T08:58:51.761Z,9.60
2017-11-23T08:59:51.764Z,10.70
2017-11-23T09:00:51.750Z,9.70
2017-11-23T09:01:51.742Z,8.80
2017-11-23T09:02:51.736Z,10.20
2017-11-23T09:03:51.729Z,8.90
2017-11-23T09:04:51.724Z,8.60
2017-11-23T09:05:51.718Z,8.30
2017-11-23T09:06:51.717Z,8.40
2017-11-23T09:07:51.707Z,8.60
2017-11-23T09:08:51.700Z,8.30
2017-11-23T09:09:51.694Z,8.70
2017-11-23T09:10:51.688Z,7.90
2017-11-23T09:11:51.679Z,8.50
2017-11-23T09:12:51.676Z,8.10
2017-11-23T09:13:51.668Z,8.90
2017-11-23T09:14:51.661Z,8.20
2017-11-23T09:15:51.657Z,7.60
2017-11-23T09:16:51.650Z,8.20
2017-11-23T09:17:51.641Z,7.90
2017-11-23T09:18:51.637Z,8.20
2017-11-23T09:19:51.658Z,7.50
2017-11-23T09:20:51.639Z,8.00
2017-11-23T09:21:51.620Z,8.00
2017-11-23T09:22:51.612Z,7.40
2017-11-23T09:23:51.605Z,8.40
2017-11-23T09:24:51.603Z,8.40
2017-11-23T09:25:51.592Z,7.70
2017-11-23T09:26:51.596Z,8.10
2017-11-23T09:27:51.581Z,7.10
2017-11-23T09:28:51.576Z,7.20
2017-11-23T09:29:51.570Z,7.10
2017-11-23T09:30:51.563Z,8.00
2017-11-23T09:31:51.556Z,7.00
2017-11-23T09:32:51.549Z,7.60
2017-11-23T09:33:51.542Z,7.50
2017-11-23T09:34:51.541Z,7.30
2017-11-23T09:35:51.530Z,7.30
2017-11-23T09:36:51.529Z,7.20
2017-11-23T09:37:51.521Z,7.50
2017-11-23T09:38:51.517Z,7.60
2017-11-23T09:39:51.518Z,7.30
2017-11-23T09:40:51.503Z,8.20
2017-11-23T09:41:51.495Z,7.00
2017-11-23T09:42:51.495Z,7.30
2017-11-23T09:43:51.484Z,7.20
2017-11-23T09:44:51.482Z,7.40
2017-11-23T09:45:51.472Z,7.20
2017-11-23T09:46:51.465Z,7.30
2017-11-23T09:47:51.460Z,7.20
2017-11-23T09:48:51.455Z,6.70
2017-11-23T09:49:51.448Z,7.00
2017-11-23T09:50:51.442Z,7.10
2017-11-23T09:51:51.437Z,6.60
2017-11-23T09:52:51.431Z,7.50
2017-11-23T09:53:51.423Z,7.10
2017-11-23T09:54:51.422Z,6.30
2017-11-23T09:55:51.414Z,6.80
2017-11-23T09:56:51.404Z,6.60
2017-11-23T09:57:51.401Z,6.60
2017-11-23T09:58:51.391Z,8.20
2017-11-23T09:59:51.394Z,7.40
2017-11-23T10:00:51.388Z,7.20
2017-11-23T10:01:51.383Z,6.50
2017-11-23T10:02:51.376Z,7.10
2017-11-23T10:03:51.372Z,6.60
2017-11-23T10:04:51.363Z,6.80
2017-11-23T10:05:51.359Z,6.80
2017-11-23T10:06:51.359Z,6.70
2017-11-23T10:07:51.357Z,6.30
2017-11-23T10:08:51.344Z,6.90
2017-11-23T10:09:51.339Z,6.20
2017-11-23T10:10:51.333Z,7.30
2017-11-23T10:11:51.328Z,7.10
2017-11-23T10:12:51.324Z,6.40
2017-11-23T10:13:51.321Z,6.40
2017-11-23T10:14:51.315Z,6.30
2017-11-23T10:15:51.309Z,6.50
2017-11-23T10:16:51.301Z,6.60
2017-11-23T10:17:51.296Z,5.80
2017-11-23T10:18:51.294Z,6.30
2017-11-23T10:19:51.288Z,6.00
2017-11-23T10:20:51.282Z,5.90
2017-11-23T10:21:51.280Z,5.90
2017-11-23T10:22:51.274Z,5.50
2017-11-23T10:23:51.267Z,6.40
2017-11-23T10:24:51.261Z,5.70
2017-11-23T10:25:51.255Z,5.70
2017-11-23T10:26:51.252Z,6.00
2017-11-23T10:27:51.247Z,5.60
2017-11-23T10:28:51.243Z,6.00
2017-11-23T10:29:51.234Z,5.50
2017-11-23T10:30:51.229Z,5.40
2017-11-23T10:31:51.226Z,5.30
2017-11-23T10:32:51.221Z,5.30
2017-11-23T10:33:51.215Z,4.90
2017-11-23T10:34:51.208Z,5.20
2017-11-23T10:35:51.208Z,5.20
2017-11-23T10:36:51.202Z,4.80
2017-11-23T10:37:51.194Z,5.10
2017-11-23T10:38:51.190Z,5.20
2017-11-23T10:39:51.187Z,4.70
2017-11-23T10:40:51.183Z,4.80
2017-11-23T10:41:51.176Z,5.00
2017-11-23T10:42:51.173Z,4.70
2017-11-23T10:43:51.165Z,4.80
2017-11-23T10:44:51.164Z,4.90
2017-11-23T10:45:51.160Z,6.00
2017-11-23T10:46:51.151Z,5.00
2017-11-23T10:47:51.150Z,4.60
2017-11-23T10:48:51.141Z,4.80
2017-11-23T10:49:51.136Z,4.80
2017-11-23T10:50:51.132Z,4.70
2017-11-23T10:51:51.127Z,5.10
2017-11-23T10:52:51.126Z,5.30
2017-11-23T10:53:51.119Z,5.00
2017-11-23T10:54:51.123Z,5.10
2017-11-23T10:55:51.113Z,5.30
2017-11-23T10:56:51.109Z,5.30
2017-11-23T10:57:51.105Z,5.20
2017-11-23T10:58:51.094Z,4.90
2017-11-23T10:59:51.091Z,5.20
2017-11-23T11:00:51.083Z,5.20
2017-11-23T11:01:51.084Z,5.10
2017-11-23T11:02:51.080Z,5.00
2017-11-23T11:03:51.099Z,4.70
2017-11-23T11:04:51.068Z,5.60
2017-11-23T11:05:51.058Z,4.90
2017-11-23T11:06:51.058Z,5.80
2017-11-23T11:07:51.054Z,5.90
2017-11-23T11:08:51.049Z,6.10
2017-11-23T11:09:51.044Z,5.20
2017-11-23T11:10:51.039Z,5.80
2017-11-23T11:11:51.039Z,5.30
2017-11-23T11:12:51.029Z,5.20
2017-11-23T11:13:51.029Z,5.20
2017-11-23T11:14:51.020Z,5.30
2017-11-23T11:15:51.026Z,5.30
2017-11-23T11:16:51.012Z,5.20
2017-11-23T11:17:51.004Z,5.50
2017-11-23T11:18:51.003Z,5.10
2017-11-23T11:19:51.000Z,5.00
2017-11-23T11:20:50.995Z,5.00
2017-11-23T11:21:50.995Z,5.20
2017-11-23T11:22:50.984Z,5.30
2017-11-23T11:23:50.987Z,5.30
2017-11-23T11:24:50.976Z,5.10
2017-11-23T11:25:50.970Z,5.40
2017-11-23T11:26:50.968Z,5.80
2017-11-23T11:27:50.965Z,5.10
2017-11-23T11:28:50.960Z,4.80
2017-11-23T11:29:50.959Z,5.90
2017-11-23T11:30:50.953Z,5.20
2017-11-23T11:31:50.948Z,5.40
2017-11-23T11:32:50.945Z,5.20
2017-11-23T11:33:50.943Z,5.40
2017-11-23T11:34:50.944Z,5.30
2017-11-23T11:35:50.931Z,4.60
2017-11-23T11:36:50.952Z,5.40
2017-11-23T11:37:50.921Z,5.30
2017-11-23T11:38:50.919Z,5.20
2017-11-23T11:39:50.916Z,6.20
2017-11-23T11:40:50.912Z,5.30
2017-11-23T11:41:50.915Z,4.80
2017-11-23T11:42:50.907Z,4.90
2017-11-23T11:43:50.901Z,4.80
2017-11-23T11:44:50.898Z,4.70
2017-11-23T11:45:50.891Z,5.00
2017-11-23T11:46:50.888Z,4.80
2017-11-23T11:47:50.889Z,4.60
2017-11-23T11:48:50.879Z,5.30
2017-11-23T11:49:50.882Z,4.60
2017-11-23T11:50:50.889Z,5.30
2017-11-23T11:51:50.872Z,4.90
2017-11-23T11:52:50.868Z,4.50
2017-11-23T11:53:50.867Z,5.30
2017-11-23T11:54:50.860Z,5.00
2017-11-23T11:55:50.859Z,5.90
2017-11-23T11:56:50.857Z,5.00
2017-11-23T11:57:50.851Z,5.10
2017-11-23T11:58:50.846Z,5.10
2017-11-23T11:59:50.843Z,4.90
2017-11-23T12:00:50.850Z,4.90
2017-11-23T12:01:50.835Z,5.00
2017-11-23T12:02:50.830Z,5.60
2017-11-23T12:03:50.829Z,5.00
2017-11-23T12:04:50.828Z,4.70
2017-11-23T12:05:50.822Z,4.90
2017-11-23T12:06:50.817Z,5.10
2017-11-23T12:07:50.814Z,5.40
2017-11-23T12:08:50.811Z,4.80
2017-11-23T12:09:50.817Z,5.20
2017-11-23T12:10:50.803Z,4.80
2017-11-23T12:11:50.802Z,4.90
2017-11-23T12:12:50.794Z,4.70
2017-11-23T12:13:50.793Z,4.60
2017-11-23T12:14:50.793Z,5.00
2017-11-23T12:15:50.786Z,4.80
2017-11-23T12:16:50.784Z,4.30
2017-11-23T12:17:50.788Z,4.60
2017-11-23T12:18:50.775Z,4.60
2017-11-23T12:19:50.775Z,4.40
2017-11-23T12:20:50.772Z,4.40
2017-11-23T12:21:50.765Z,4.60
2017-11-23T12:22:50.764Z,5.10
2017-11-23T12:23:50.763Z,5.00
2017-11-23T12:24:50.758Z,4.80
2017-11-23T12:25:50.753Z,4.80
2017-11-23T12:26:50.749Z,4.80
2017-11-23T12:27:50.744Z,4.90
2017-11-23T12:28:50.743Z,5.20
2017-11-23T12:29:50.739Z,4.20
2017-11-23T12:30:50.738Z,5.10
2017-11-23T12:31:50.732Z,5.00
2017-11-23T12:32:50.728Z,4.90
2017-11-23T12:33:50.727Z,5.10
2017-11-23T12:34:50.719Z,4.70
2017-11-23T12:35:50.718Z,4.90
2017-11-23T12:36:50.714Z,5.00
2017-11-23T12:37:50.712Z,5.20
2017-11-23T12:38:50.704Z,4.70
2017-11-23T12:39:50.705Z,5.30
2017-11-23T12:40:50.704Z,5.00
2017-11-23T12:41:50.695Z,4.90
2017-11-23T12:42:50.695Z,4.60
2017-11-23T12:43:50.701Z,4.80
2017-11-23T12:44:50.686Z,4.70
2017-11-23T12:45:50.683Z,4.70
2017-11-23T12:46:50.688Z,4.60
2017-11-23T12:47:50.674Z,4.40
2017-11-23T12:48:50.669Z,4.60
2017-11-23T12:49:50.667Z,4.60
2017-11-23T12:50:50.665Z,4.80
2017-11-23T12:51:50.663Z,4.40
2017-11-23T12:52:50.657Z,4.70
2017-11-23T12:53:50.651Z,4.30
2017-11-23T12:54:50.649Z,4.30
2017-11-23T12:55:50.645Z,4.20
2017-11-23T12:56:50.640Z,4.90
2017-11-23T12:57:50.637Z,3.90
2017-11-23T12:58:50.632Z,4.00
2017-11-23T12:59:50.631Z,4.40
2017-11-23T13:00:50.628Z,4.00
2017-11-23T13:01:50.622Z,4.00
2017-11-23T13:02:50.622Z,4.50
2017-11-23T13:03:50.616Z,4.40
2017-11-23T13:04:50.612Z,4.40
2017-11-23T13:05:50.609Z,4.30
2017-11-23T13:06:50.604Z,4.20
2017-11-23T13:07:50.598Z,3.80
2017-11-23T13:08:50.602Z,4.30
2017-11-23T13:09:50.593Z,4.70
2017-11-23T13:10:50.601Z,4.20
2017-11-23T13:11:50.588Z,4.00
2017-11-23T13:12:50.576Z,3.40
2017-11-23T13:13:50.579Z,3.70
2017-11-23T13:14:50.578Z,4.40
2017-11-23T13:15:50.573Z,3.90
2017-11-23T13:16:50.568Z,4.00
2017-11-23T13:17:50.564Z,4.50